sensor_id;sensor_type;location;lat;lon;timestamp;P1;durP1;ratioP1;P2;durP2;ratioP2
5217;SDS011;26539;51.064;6.346;2023-11-19T00:02:07;2.43;;;1.93;;
5217;SDS011;26539;51.064;6.346;2023-11-19T00:04:33;2.47;;;2.00;;
5217;SDS011;26539;51.064;6.346;2023-11-19T00:07:02;5.43;;;2.50;;
5217;SDS011;26539;51.064;6.346;2023-11-19T00:09:30;2.47;;;2.00;;
5217;SDS011;26539;51.064;6.346;2023-11-19T00:11:56;2.00;;;1.80;;
5217;SDS011;26539;51.064;6.346;2023-11-19T00:14:22;2.30;;;2.03;;
5217;SDS011;26539;51.064;6.346;2023-11-19T00:16:49;6.40;;;2.63;;
5217;SDS011;26539;51.064;6.346;2023-11-19T00:19:16;4.50;;;1.53;;
5217;SDS011;26539;51.064;6.346;2023-11-19T00:21:45;2.20;;;1.90;;
5217;SDS011;26539;51.064;6.346;2023-11-19T00:24:15;2.47;;;1.60;;
5217;SDS011;26539;51.064;6.346;2023-11-19T00:26:42;1.50;;;1.40;;
5217;SDS011;26539;51.064;6.346;2023-11-19T00:29:08;2.50;;;1.53;;
5217;SDS011;26539;51.064;6.346;2023-11-19T00:31:39;3.70;;;1.03;;
5217;SDS011;26539;51.064;6.346;2023-11-19T00:34:04;1.50;;;1.20;;
5217;SDS011;26539;51.064;6.346;2023-11-19T00:36:31;1.67;;;1.30;;
5217;SDS011;26539;51.064;6.346;2023-11-19T00:38:56;1.83;;;1.20;;
5217;SDS011;26539;51.064;6.346;2023-11-19T00:41:22;1.73;;;1.00;;
5217;SDS011;26539;51.064;6.346;2023-11-19T00:43:50;2.60;;;1.53;;
5217;SDS011;26539;51.064;6.346;2023-11-19T00:46:16;1.60;;;1.30;;
5217;SDS011;26539;51.064;6.346;2023-11-19T00:48:41;1.73;;;1.00;;
5217;SDS011;26539;51.064;6.346;2023-11-19T00:51:07;2.43;;;1.30;;
5217;SDS011;26539;51.064;6.346;2023-11-19T00:53:32;5.23;;;1.17;;
5217;SDS011;26539;51.064;6.346;2023-11-19T00:56:01;2.10;;;1.20;;
5217;SDS011;26539;51.064;6.346;2023-11-19T00:58:26;3.17;;;0.93;;
5217;SDS011;26539;51.064;6.346;2023-11-19T01:00:52;2.20;;;1.03;;
5217;SDS011;26539;51.064;6.346;2023-11-19T01:03:17;1.20;;;1.00;;
5217;SDS011;26539;51.064;6.346;2023-11-19T01:05:43;1.33;;;1.10;;
5217;SDS011;26539;51.064;6.346;2023-11-19T01:08:09;2.27;;;1.20;;
5217;SDS011;26539;51.064;6.346;2023-11-19T01:10:36;1.27;;;0.90;;
5217;SDS011;26539;51.064;6.346;2023-11-19T01:13:02;2.03;;;1.17;;
5217;SDS011;26539;51.064;6.346;2023-11-19T01:15:30;2.77;;;1.40;;
5217;SDS011;26539;51.064;6.346;2023-11-19T01:17:56;2.10;;;1.60;;
5217;SDS011;26539;51.064;6.346;2023-11-19T01:20:22;2.80;;;1.57;;
5217;SDS011;26539;51.064;6.346;2023-11-19T01:22:47;2.10;;;1.60;;
5217;SDS011;26539;51.064;6.346;2023-11-19T01:25:13;3.10;;;1.67;;
5217;SDS011;26539;51.064;6.346;2023-11-19T01:27:39;5.00;;;3.30;;
5217;SDS011;26539;51.064;6.346;2023-11-19T01:30:04;5.70;;;2.07;;
5217;SDS011;26539;51.064;6.346;2023-11-19T01:32:34;2.03;;;1.53;;
5217;SDS011;26539;51.064;6.346;2023-11-19T01:35:01;3.13;;;1.77;;
5217;SDS011;26539;51.064;6.346;2023-11-19T01:37:27;5.47;;;2.60;;
5217;SDS011;26539;51.064;6.346;2023-11-19T01:39:53;7.00;;;2.53;;
5217;SDS011;26539;51.064;6.346;2023-11-19T01:42:18;6.97;;;2.67;;
5217;SDS011;26539;51.064;6.346;2023-11-19T01:44:54;6.13;;;2.30;;
5217;SDS011;26539;51.064;6.346;2023-11-19T01:47:23;2.53;;;2.27;;
5217;SDS011;26539;51.064;6.346;2023-11-19T01:49:49;4.23;;;2.77;;
5217;SDS011;26539;51.064;6.346;2023-11-19T01:52:15;8.83;;;2.80;;
5217;SDS011;26539;51.064;6.346;2023-11-19T01:54:41;9.63;;;2.30;;
5217;SDS011;26539;51.064;6.346;2023-11-19T01:57:07;6.27;;;3.20;;
5217;SDS011;26539;51.064;6.346;2023-11-19T01:59:34;8.37;;;2.77;;
5217;SDS011;26539;51.064;6.346;2023-11-19T02:01:59;9.30;;;2.87;;
5217;SDS011;26539;51.064;6.346;2023-11-19T02:04:25;12.80;;;3.17;;
5217;SDS011;26539;51.064;6.346;2023-11-19T02:06:51;8.40;;;3.30;;
5217;SDS011;26539;51.064;6.346;2023-11-19T02:09:21;10.43;;;3.30;;
5217;SDS011;26539;51.064;6.346;2023-11-19T02:11:46;5.10;;;3.20;;
5217;SDS011;26539;51.064;6.346;2023-11-19T02:14:16;12.40;;;3.60;;
5217;SDS011;26539;51.064;6.346;2023-11-19T02:16:42;8.70;;;3.87;;
5217;SDS011;26539;51.064;6.346;2023-11-19T02:19:08;7.20;;;3.40;;
5217;SDS011;26539;51.064;6.346;2023-11-19T02:21:36;5.10;;;3.00;;
5217;SDS011;26539;51.064;6.346;2023-11-19T02:24:05;12.50;;;2.90;;
5217;SDS011;26539;51.064;6.346;2023-11-19T02:26:35;13.43;;;3.90;;
5217;SDS011;26539;51.064;6.346;2023-11-19T02:29:09;12.43;;;3.20;;
5217;SDS011;26539;51.064;6.346;2023-11-19T02:31:34;10.50;;;3.10;;
5217;SDS011;26539;51.064;6.346;2023-11-19T02:34:00;8.77;;;2.93;;
5217;SDS011;26539;51.064;6.346;2023-11-19T02:36:27;10.70;;;3.10;;
5217;SDS011;26539;51.064;6.346;2023-11-19T02:38:53;11.07;;;2.90;;
5217;SDS011;26539;51.064;6.346;2023-11-19T02:41:18;6.53;;;2.80;;
5217;SDS011;26539;51.064;6.346;2023-11-19T02:43:44;10.50;;;4.07;;
5217;SDS011;26539;51.064;6.346;2023-11-19T02:46:09;11.70;;;3.33;;
5217;SDS011;26539;51.064;6.346;2023-11-19T02:48:35;7.30;;;2.97;;
5217;SDS011;26539;51.064;6.346;2023-11-19T02:51:02;11.13;;;2.80;;
5217;SDS011;26539;51.064;6.346;2023-11-19T02:53:34;11.70;;;3.33;;
5217;SDS011;26539;51.064;6.346;2023-11-19T02:56:00;9.23;;;2.77;;
5217;SDS011;26539;51.064;6.346;2023-11-19T02:58:37;11.33;;;2.70;;
5217;SDS011;26539;51.064;6.346;2023-11-19T03:01:03;11.53;;;2.60;;
5217;SDS011;26539;51.064;6.346;2023-11-19T03:03:37;14.70;;;3.30;;
5217;SDS011;26539;51.064;6.346;2023-11-19T03:06:05;13.50;;;3.53;;
5217;SDS011;26539;51.064;6.346;2023-11-19T03:08:31;12.53;;;2.80;;
5217;SDS011;26539;51.064;6.346;2023-11-19T03:10:58;12.63;;;3.10;;
5217;SDS011;26539;51.064;6.346;2023-11-19T03:13:24;15.47;;;2.80;;
5217;SDS011;26539;51.064;6.346;2023-11-19T03:15:49;7.57;;;2.40;;
5217;SDS011;26539;51.064;6.346;2023-11-19T03:18:16;16.83;;;3.10;;
5217;SDS011;26539;51.064;6.346;2023-11-19T03:20:41;17.90;;;4.60;;
5217;SDS011;26539;51.064;6.346;2023-11-19T03:23:07;10.47;;;3.87;;
5217;SDS011;26539;51.064;6.346;2023-11-19T03:25:33;19.23;;;4.33;;
5217;SDS011;26539;51.064;6.346;2023-11-19T03:27:59;16.87;;;4.83;;
5217;SDS011;26539;51.064;6.346;2023-11-19T03:30:28;15.73;;;3.90;;
5217;SDS011;26539;51.064;6.346;2023-11-19T03:32:55;22.23;;;5.80;;
5217;SDS011;26539;51.064;6.346;2023-11-19T03:35:21;15.23;;;3.57;;
5217;SDS011;26539;51.064;6.346;2023-11-19T03:37:50;23.93;;;4.30;;
5217;SDS011;26539;51.064;6.346;2023-11-19T03:40:16;15.33;;;4.17;;
5217;SDS011;26539;51.064;6.346;2023-11-19T03:42:43;15.70;;;4.60;;
5217;SDS011;26539;51.064;6.346;2023-11-19T03:45:10;19.37;;;3.83;;
5217;SDS011;26539;51.064;6.346;2023-11-19T03:47:35;16.30;;;3.37;;
5217;SDS011;26539;51.064;6.346;2023-11-19T03:50:01;13.27;;;4.70;;
5217;SDS011;26539;51.064;6.346;2023-11-19T03:52:27;10.53;;;3.47;;
5217;SDS011;26539;51.064;6.346;2023-11-19T03:54:54;12.27;;;3.13;;
5217;SDS011;26539;51.064;6.346;2023-11-19T03:57:23;11.23;;;3.10;;
5217;SDS011;26539;51.064;6.346;2023-11-19T03:59:49;20.03;;;3.80;;
5217;SDS011;26539;51.064;6.346;2023-11-19T04:02:15;16.93;;;4.00;;
5217;SDS011;26539;51.064;6.346;2023-11-19T04:04:42;16.90;;;4.13;;
5217;SDS011;26539;51.064;6.346;2023-11-19T04:07:08;14.43;;;3.30;;
5217;SDS011;26539;51.064;6.346;2023-11-19T04:09:34;10.93;;;3.20;;
5217;SDS011;26539;51.064;6.346;2023-11-19T04:11:59;12.67;;;3.53;;
5217;SDS011;26539;51.064;6.346;2023-11-19T04:14:26;20.53;;;4.60;;
5217;SDS011;26539;51.064;6.346;2023-11-19T04:16:52;14.63;;;4.17;;
5217;SDS011;26539;51.064;6.346;2023-11-19T04:19:18;11.77;;;3.80;;
5217;SDS011;26539;51.064;6.346;2023-11-19T04:21:44;15.77;;;3.63;;
5217;SDS011;26539;51.064;6.346;2023-11-19T04:24:10;21.93;;;4.40;;
5217;SDS011;26539;51.064;6.346;2023-11-19T04:26:43;17.00;;;3.67;;
5217;SDS011;26539;51.064;6.346;2023-11-19T04:29:11;21.57;;;4.10;;
5217;SDS011;26539;51.064;6.346;2023-11-19T04:31:37;14.23;;;4.10;;
5217;SDS011;26539;51.064;6.346;2023-11-19T04:34:03;21.67;;;4.73;;
5217;SDS011;26539;51.064;6.346;2023-11-19T04:36:28;21.73;;;3.90;;
5217;SDS011;26539;51.064;6.346;2023-11-19T04:38:54;17.83;;;3.70;;
5217;SDS011;26539;51.064;6.346;2023-11-19T04:41:20;19.07;;;3.90;;
5217;SDS011;26539;51.064;6.346;2023-11-19T04:43:46;19.60;;;4.10;;
5217;SDS011;26539;51.064;6.346;2023-11-19T04:46:11;20.27;;;4.90;;
5217;SDS011;26539;51.064;6.346;2023-11-19T04:48:37;14.37;;;3.30;;
5217;SDS011;26539;51.064;6.346;2023-11-19T04:51:04;15.60;;;3.87;;
5217;SDS011;26539;51.064;6.346;2023-11-19T04:53:30;14.43;;;3.70;;
5217;SDS011;26539;51.064;6.346;2023-11-19T04:55:55;15.90;;;3.70;;
5217;SDS011;26539;51.064;6.346;2023-11-19T04:58:21;11.10;;;2.97;;
5217;SDS011;26539;51.064;6.346;2023-11-19T05:00:46;9.83;;;3.30;;
5217;SDS011;26539;51.064;6.346;2023-11-19T05:03:12;20.07;;;3.50;;
5217;SDS011;26539;51.064;6.346;2023-11-19T05:05:37;11.33;;;3.40;;
5217;SDS011;26539;51.064;6.346;2023-11-19T05:08:03;15.80;;;3.50;;
5217;SDS011;26539;51.064;6.346;2023-11-19T05:10:28;18.73;;;4.67;;
5217;SDS011;26539;51.064;6.346;2023-11-19T05:12:54;14.67;;;3.57;;
5217;SDS011;26539;51.064;6.346;2023-11-19T05:15:21;15.77;;;3.87;;
5217;SDS011;26539;51.064;6.346;2023-11-19T05:17:47;15.73;;;4.30;;
5217;SDS011;26539;51.064;6.346;2023-11-19T05:20:13;13.20;;;3.20;;
5217;SDS011;26539;51.064;6.346;2023-11-19T05:22:39;15.43;;;3.50;;
5217;SDS011;26539;51.064;6.346;2023-11-19T05:25:05;18.20;;;3.80;;
5217;SDS011;26539;51.064;6.346;2023-11-19T05:27:31;14.90;;;3.40;;
5217;SDS011;26539;51.064;6.346;2023-11-19T05:29:57;13.07;;;3.97;;
5217;SDS011;26539;51.064;6.346;2023-11-19T05:32:22;16.20;;;3.93;;
5217;SDS011;26539;51.064;6.346;2023-11-19T05:34:48;16.27;;;3.67;;
5217;SDS011;26539;51.064;6.346;2023-11-19T05:37:13;22.67;;;3.80;;
5217;SDS011;26539;51.064;6.346;2023-11-19T05:39:39;17.63;;;4.03;;
5217;SDS011;26539;51.064;6.346;2023-11-19T05:42:04;21.13;;;4.30;;
5217;SDS011;26539;51.064;6.346;2023-11-19T05:44:30;15.37;;;4.50;;
5217;SDS011;26539;51.064;6.346;2023-11-19T05:46:56;19.07;;;4.00;;
5217;SDS011;26539;51.064;6.346;2023-11-19T05:49:21;17.07;;;3.80;;
5217;SDS011;26539;51.064;6.346;2023-11-19T05:51:47;16.87;;;4.40;;
5217;SDS011;26539;51.064;6.346;2023-11-19T05:54:12;15.83;;;4.23;;
5217;SDS011;26539;51.064;6.346;2023-11-19T05:56:38;13.17;;;3.97;;
5217;SDS011;26539;51.064;6.346;2023-11-19T05:59:04;24.50;;;4.90;;
5217;SDS011;26539;51.064;6.346;2023-11-19T06:01:35;19.30;;;4.10;;
5217;SDS011;26539;51.064;6.346;2023-11-19T06:04:01;15.87;;;5.00;;
5217;SDS011;26539;51.064;6.346;2023-11-19T06:06:27;19.93;;;4.67;;
5217;SDS011;26539;51.064;6.346;2023-11-19T06:08:53;19.30;;;4.07;;
5217;SDS011;26539;51.064;6.346;2023-11-19T06:11:19;16.77;;;3.90;;
5217;SDS011;26539;51.064;6.346;2023-11-19T06:13:48;12.67;;;4.37;;
5217;SDS011;26539;51.064;6.346;2023-11-19T06:16:15;19.43;;;5.00;;
5217;SDS011;26539;51.064;6.346;2023-11-19T06:18:40;19.87;;;5.33;;
5217;SDS011;26539;51.064;6.346;2023-11-19T06:21:06;11.73;;;3.70;;
5217;SDS011;26539;51.064;6.346;2023-11-19T06:23:32;19.07;;;4.70;;
5217;SDS011;26539;51.064;6.346;2023-11-19T06:25:57;19.83;;;4.13;;
5217;SDS011;26539;51.064;6.346;2023-11-19T06:28:23;18.30;;;4.30;;
5217;SDS011;26539;51.064;6.346;2023-11-19T06:30:49;27.07;;;5.07;;
5217;SDS011;26539;51.064;6.346;2023-11-19T06:33:15;23.20;;;4.47;;
5217;SDS011;26539;51.064;6.346;2023-11-19T06:35:41;17.63;;;3.97;;
5217;SDS011;26539;51.064;6.346;2023-11-19T06:38:06;22.93;;;5.30;;
5217;SDS011;26539;51.064;6.346;2023-11-19T06:40:35;23.57;;;5.10;;
5217;SDS011;26539;51.064;6.346;2023-11-19T06:43:00;11.30;;;3.97;;
5217;SDS011;26539;51.064;6.346;2023-11-19T06:45:28;24.57;;;4.77;;
5217;SDS011;26539;51.064;6.346;2023-11-19T06:47:54;23.37;;;5.27;;
5217;SDS011;26539;51.064;6.346;2023-11-19T06:50:19;28.83;;;5.70;;
5217;SDS011;26539;51.064;6.346;2023-11-19T06:52:45;26.33;;;4.80;;
5217;SDS011;26539;51.064;6.346;2023-11-19T06:55:11;19.23;;;4.90;;
5217;SDS011;26539;51.064;6.346;2023-11-19T06:57:37;18.70;;;5.30;;
5217;SDS011;26539;51.064;6.346;2023-11-19T07:00:02;27.37;;;4.47;;
5217;SDS011;26539;51.064;6.346;2023-11-19T07:02:30;17.10;;;5.27;;
5217;SDS011;26539;51.064;6.346;2023-11-19T07:04:56;20.10;;;4.70;;
5217;SDS011;26539;51.064;6.346;2023-11-19T07:07:22;24.23;;;4.60;;
5217;SDS011;26539;51.064;6.346;2023-11-19T07:09:47;15.23;;;4.03;;
5217;SDS011;26539;51.064;6.346;2023-11-19T07:12:13;17.70;;;4.07;;
5217;SDS011;26539;51.064;6.346;2023-11-19T07:14:39;21.00;;;4.40;;
5217;SDS011;26539;51.064;6.346;2023-11-19T07:17:05;20.07;;;4.23;;
5217;SDS011;26539;51.064;6.346;2023-11-19T07:19:31;16.97;;;4.57;;
5217;SDS011;26539;51.064;6.346;2023-11-19T07:21:57;23.83;;;4.50;;
5217;SDS011;26539;51.064;6.346;2023-11-19T07:24:22;16.50;;;3.70;;
5217;SDS011;26539;51.064;6.346;2023-11-19T07:26:48;19.37;;;3.70;;
5217;SDS011;26539;51.064;6.346;2023-11-19T07:29:16;24.43;;;6.07;;
5217;SDS011;26539;51.064;6.346;2023-11-19T07:31:42;23.20;;;5.10;;
5217;SDS011;26539;51.064;6.346;2023-11-19T07:34:09;17.93;;;4.30;;
5217;SDS011;26539;51.064;6.346;2023-11-19T07:36:35;16.07;;;3.90;;
5217;SDS011;26539;51.064;6.346;2023-11-19T07:39:01;23.83;;;5.60;;
5217;SDS011;26539;51.064;6.346;2023-11-19T07:41:27;15.97;;;4.20;;
5217;SDS011;26539;51.064;6.346;2023-11-19T07:43:53;19.13;;;5.20;;
5217;SDS011;26539;51.064;6.346;2023-11-19T07:46:19;13.80;;;4.13;;
5217;SDS011;26539;51.064;6.346;2023-11-19T07:48:45;19.30;;;4.67;;
5217;SDS011;26539;51.064;6.346;2023-11-19T07:51:12;21.47;;;5.20;;
5217;SDS011;26539;51.064;6.346;2023-11-19T07:53:38;18.80;;;4.87;;
5217;SDS011;26539;51.064;6.346;2023-11-19T07:56:04;21.53;;;4.13;;
5217;SDS011;26539;51.064;6.346;2023-11-19T07:58:30;21.20;;;3.87;;
5217;SDS011;26539;51.064;6.346;2023-11-19T08:00:56;19.23;;;4.50;;
5217;SDS011;26539;51.064;6.346;2023-11-19T08:03:21;20.13;;;3.97;;
5217;SDS011;26539;51.064;6.346;2023-11-19T08:05:47;19.63;;;3.90;;
5217;SDS011;26539;51.064;6.346;2023-11-19T08:08:13;17.60;;;3.90;;
5217;SDS011;26539;51.064;6.346;2023-11-19T08:10:38;15.30;;;3.77;;
5217;SDS011;26539;51.064;6.346;2023-11-19T08:13:05;22.63;;;4.33;;
5217;SDS011;26539;51.064;6.346;2023-11-19T08:15:30;19.10;;;6.17;;
5217;SDS011;26539;51.064;6.346;2023-11-19T08:17:56;22.70;;;5.03;;
5217;SDS011;26539;51.064;6.346;2023-11-19T08:20:22;21.10;;;4.60;;
5217;SDS011;26539;51.064;6.346;2023-11-19T08:22:48;17.13;;;4.33;;
5217;SDS011;26539;51.064;6.346;2023-11-19T08:25:14;16.67;;;4.33;;
5217;SDS011;26539;51.064;6.346;2023-11-19T08:27:39;20.07;;;4.50;;
5217;SDS011;26539;51.064;6.346;2023-11-19T08:30:05;18.80;;;5.33;;
5217;SDS011;26539;51.064;6.346;2023-11-19T08:32:31;19.90;;;5.17;;
5217;SDS011;26539;51.064;6.346;2023-11-19T08:34:57;19.63;;;5.60;;
5217;SDS011;26539;51.064;6.346;2023-11-19T08:37:23;19.70;;;5.50;;
5217;SDS011;26539;51.064;6.346;2023-11-19T08:39:48;21.03;;;4.83;;
5217;SDS011;26539;51.064;6.346;2023-11-19T08:42:15;17.00;;;4.40;;
5217;SDS011;26539;51.064;6.346;2023-11-19T08:44:41;22.47;;;4.10;;
5217;SDS011;26539;51.064;6.346;2023-11-19T08:47:09;14.30;;;4.63;;
5217;SDS011;26539;51.064;6.346;2023-11-19T08:49:34;22.83;;;5.27;;
5217;SDS011;26539;51.064;6.346;2023-11-19T08:52:00;17.53;;;4.60;;
5217;SDS011;26539;51.064;6.346;2023-11-19T08:54:26;17.10;;;4.03;;
5217;SDS011;26539;51.064;6.346;2023-11-19T08:56:51;19.33;;;4.13;;
5217;SDS011;26539;51.064;6.346;2023-11-19T08:59:17;22.37;;;4.93;;
5217;SDS011;26539;51.064;6.346;2023-11-19T09:01:43;19.33;;;5.00;;
5217;SDS011;26539;51.064;6.346;2023-11-19T09:04:09;18.20;;;4.90;;
5217;SDS011;26539;51.064;6.346;2023-11-19T09:06:35;19.73;;;4.83;;
5217;SDS011;26539;51.064;6.346;2023-11-19T09:09:01;16.40;;;4.13;;
5217;SDS011;26539;51.064;6.346;2023-11-19T09:11:28;18.03;;;5.23;;
5217;SDS011;26539;51.064;6.346;2023-11-19T09:13:54;19.37;;;5.20;;
5217;SDS011;26539;51.064;6.346;2023-11-19T09:16:19;14.80;;;4.73;;
5217;SDS011;26539;51.064;6.346;2023-11-19T09:18:45;31.43;;;6.30;;
5217;SDS011;26539;51.064;6.346;2023-11-19T09:21:11;23.00;;;4.70;;
5217;SDS011;26539;51.064;6.346;2023-11-19T09:23:37;21.77;;;4.97;;
5217;SDS011;26539;51.064;6.346;2023-11-19T09:26:04;22.20;;;5.20;;
5217;SDS011;26539;51.064;6.346;2023-11-19T09:28:30;12.97;;;3.43;;
5217;SDS011;26539;51.064;6.346;2023-11-19T09:30:56;27.30;;;5.80;;
5217;SDS011;26539;51.064;6.346;2023-11-19T09:33:25;21.13;;;5.63;;
5217;SDS011;26539;51.064;6.346;2023-11-19T09:35:51;31.77;;;5.00;;
5217;SDS011;26539;51.064;6.346;2023-11-19T09:38:17;23.53;;;4.93;;
5217;SDS011;26539;51.064;6.346;2023-11-19T09:40:42;26.37;;;5.10;;
5217;SDS011;26539;51.064;6.346;2023-11-19T09:43:08;22.17;;;5.17;;
5217;SDS011;26539;51.064;6.346;2023-11-19T09:45:50;24.13;;;5.30;;
5217;SDS011;26539;51.064;6.346;2023-11-19T09:48:19;35.23;;;5.90;;
5217;SDS011;26539;51.064;6.346;2023-11-19T09:50:47;26.87;;;5.43;;
5217;SDS011;26539;51.064;6.346;2023-11-19T09:53:14;32.43;;;5.23;;
5217;SDS011;26539;51.064;6.346;2023-11-19T09:55:45;25.20;;;6.40;;
5217;SDS011;26539;51.064;6.346;2023-11-19T09:58:13;25.97;;;5.53;;
5217;SDS011;26539;51.064;6.346;2023-11-19T10:00:40;14.20;;;3.63;;
5217;SDS011;26539;51.064;6.346;2023-11-19T10:03:06;20.90;;;5.07;;
5217;SDS011;26539;51.064;6.346;2023-11-19T10:05:34;19.53;;;4.67;;
5217;SDS011;26539;51.064;6.346;2023-11-19T10:08:01;23.13;;;4.63;;
5217;SDS011;26539;51.064;6.346;2023-11-19T10:10:28;18.20;;;5.20;;
5217;SDS011;26539;51.064;6.346;2023-11-19T10:12:53;17.03;;;5.20;;
5217;SDS011;26539;51.064;6.346;2023-11-19T10:15:20;19.43;;;5.23;;
5217;SDS011;26539;51.064;6.346;2023-11-19T10:17:47;25.73;;;4.87;;
5217;SDS011;26539;51.064;6.346;2023-11-19T10:20:13;19.60;;;3.90;;
5217;SDS011;26539;51.064;6.346;2023-11-19T10:22:39;25.93;;;4.53;;
5217;SDS011;26539;51.064;6.346;2023-11-19T10:25:05;24.37;;;4.90;;
5217;SDS011;26539;51.064;6.346;2023-11-19T10:27:51;14.20;;;3.70;;
5217;SDS011;26539;51.064;6.346;2023-11-19T10:30:24;17.10;;;4.83;;
5217;SDS011;26539;51.064;6.346;2023-11-19T10:35:53;16.17;;;5.03;;
5217;SDS011;26539;51.064;6.346;2023-11-19T10:38:19;14.03;;;4.40;;
5217;SDS011;26539;51.064;6.346;2023-11-19T10:40:47;18.33;;;4.30;;
5217;SDS011;26539;51.064;6.346;2023-11-19T10:43:13;22.30;;;4.43;;
5217;SDS011;26539;51.064;6.346;2023-11-19T10:45:39;18.37;;;4.90;;
5217;SDS011;26539;51.064;6.346;2023-11-19T10:48:05;15.03;;;4.20;;
5217;SDS011;26539;51.064;6.346;2023-11-19T10:50:35;18.07;;;3.87;;
5217;SDS011;26539;51.064;6.346;2023-11-19T10:53:04;15.63;;;3.83;;
5217;SDS011;26539;51.064;6.346;2023-11-19T10:55:32;18.70;;;4.07;;
5217;SDS011;26539;51.064;6.346;2023-11-19T10:58:06;19.93;;;4.53;;
5217;SDS011;26539;51.064;6.346;2023-11-19T11:00:41;21.30;;;4.57;;
5217;SDS011;26539;51.064;6.346;2023-11-19T11:03:21;18.73;;;4.83;;
5217;SDS011;26539;51.064;6.346;2023-11-19T11:05:53;13.40;;;3.80;;
5217;SDS011;26539;51.064;6.346;2023-11-19T11:08:19;16.93;;;4.30;;
5217;SDS011;26539;51.064;6.346;2023-11-19T11:10:48;14.47;;;4.30;;
5217;SDS011;26539;51.064;6.346;2023-11-19T11:13:16;12.03;;;3.50;;
5217;SDS011;26539;51.064;6.346;2023-11-19T11:15:43;15.50;;;3.50;;
5217;SDS011;26539;51.064;6.346;2023-11-19T11:18:11;18.37;;;3.77;;
5217;SDS011;26539;51.064;6.346;2023-11-19T11:20:38;9.63;;;3.97;;
5217;SDS011;26539;51.064;6.346;2023-11-19T11:26:17;10.13;;;3.60;;
5217;SDS011;26539;51.064;6.346;2023-11-19T11:29:35;16.00;;;4.10;;
5217;SDS011;26539;51.064;6.346;2023-11-19T11:31:57;12.07;;;3.80;;
5217;SDS011;26539;51.064;6.346;2023-11-19T11:37:32;15.07;;;3.00;;
5217;SDS011;26539;51.064;6.346;2023-11-19T11:40:00;16.07;;;3.77;;
5217;SDS011;26539;51.064;6.346;2023-11-19T11:42:38;16.13;;;4.20;;
5217;SDS011;26539;51.064;6.346;2023-11-19T11:45:07;13.93;;;3.77;;
5217;SDS011;26539;51.064;6.346;2023-11-19T11:50:08;14.03;;;4.63;;
5217;SDS011;26539;51.064;6.346;2023-11-19T11:53:13;15.00;;;3.50;;
5217;SDS011;26539;51.064;6.346;2023-11-19T11:55:26;15.40;;;5.17;;
5217;SDS011;26539;51.064;6.346;2023-11-19T11:57:52;17.53;;;4.40;;
5217;SDS011;26539;51.064;6.346;2023-11-19T12:00:22;20.03;;;3.37;;
5217;SDS011;26539;51.064;6.346;2023-11-19T12:03:01;14.93;;;3.43;;
5217;SDS011;26539;51.064;6.346;2023-11-19T12:05:27;15.67;;;4.27;;
5217;SDS011;26539;51.064;6.346;2023-11-19T12:07:54;23.73;;;3.60;;
5217;SDS011;26539;51.064;6.346;2023-11-19T12:10:22;16.23;;;3.80;;
5217;SDS011;26539;51.064;6.346;2023-11-19T12:13:04;15.70;;;3.70;;
5217;SDS011;26539;51.064;6.346;2023-11-19T12:15:32;18.33;;;4.00;;
5217;SDS011;26539;51.064;6.346;2023-11-19T12:17:58;21.57;;;5.30;;
5217;SDS011;26539;51.064;6.346;2023-11-19T12:20:24;17.80;;;4.60;;
5217;SDS011;26539;51.064;6.346;2023-11-19T12:22:53;22.97;;;4.80;;
5217;SDS011;26539;51.064;6.346;2023-11-19T12:25:19;14.03;;;3.10;;
5217;SDS011;26539;51.064;6.346;2023-11-19T12:27:51;16.43;;;5.17;;
5217;SDS011;26539;51.064;6.346;2023-11-19T12:30:20;15.67;;;4.00;;
5217;SDS011;26539;51.064;6.346;2023-11-19T12:32:49;10.97;;;2.97;;
5217;SDS011;26539;51.064;6.346;2023-11-19T12:35:16;18.17;;;3.70;;
5217;SDS011;26539;51.064;6.346;2023-11-19T12:40:12;16.33;;;3.77;;
5217;SDS011;26539;51.064;6.346;2023-11-19T12:42:39;13.13;;;3.70;;
5217;SDS011;26539;51.064;6.346;2023-11-19T12:45:06;7.17;;;2.70;;
5217;SDS011;26539;51.064;6.346;2023-11-19T12:47:33;11.30;;;3.60;;
5217;SDS011;26539;51.064;6.346;2023-11-19T12:49:58;12.10;;;3.10;;
5217;SDS011;26539;51.064;6.346;2023-11-19T12:52:24;11.80;;;3.43;;
5217;SDS011;26539;51.064;6.346;2023-11-19T12:54:50;13.70;;;3.10;;
5217;SDS011;26539;51.064;6.346;2023-11-19T12:57:16;15.67;;;3.50;;
5217;SDS011;26539;51.064;6.346;2023-11-19T12:59:54;12.90;;;3.90;;
5217;SDS011;26539;51.064;6.346;2023-11-19T13:02:23;14.20;;;4.00;;
5217;SDS011;26539;51.064;6.346;2023-11-19T13:05:22;14.53;;;3.30;;
5217;SDS011;26539;51.064;6.346;2023-11-19T13:08:09;15.87;;;3.20;;
5217;SDS011;26539;51.064;6.346;2023-11-19T13:10:53;16.23;;;3.50;;
5217;SDS011;26539;51.064;6.346;2023-11-19T13:13:21;9.93;;;3.27;;
5217;SDS011;26539;51.064;6.346;2023-11-19T13:15:47;16.80;;;3.50;;
5217;SDS011;26539;51.064;6.346;2023-11-19T13:18:15;10.40;;;3.40;;
5217;SDS011;26539;51.064;6.346;2023-11-19T13:20:41;14.27;;;3.97;;
5217;SDS011;26539;51.064;6.346;2023-11-19T13:23:09;17.83;;;4.63;;
5217;SDS011;26539;51.064;6.346;2023-11-19T13:25:40;20.17;;;4.70;;
5217;SDS011;26539;51.064;6.346;2023-11-19T13:28:05;18.10;;;4.90;;
5217;SDS011;26539;51.064;6.346;2023-11-19T13:30:31;20.73;;;5.13;;
5217;SDS011;26539;51.064;6.346;2023-11-19T13:32:56;19.30;;;3.97;;
5217;SDS011;26539;51.064;6.346;2023-11-19T13:35:22;11.47;;;3.50;;
5217;SDS011;26539;51.064;6.346;2023-11-19T13:37:48;20.40;;;4.43;;
5217;SDS011;26539;51.064;6.346;2023-11-19T13:40:13;14.80;;;3.50;;
5217;SDS011;26539;51.064;6.346;2023-11-19T13:42:40;20.00;;;4.37;;
5217;SDS011;26539;51.064;6.346;2023-11-19T13:45:10;16.83;;;3.73;;
5217;SDS011;26539;51.064;6.346;2023-11-19T13:47:38;15.97;;;3.93;;
5217;SDS011;26539;51.064;6.346;2023-11-19T13:50:06;15.83;;;3.90;;
5217;SDS011;26539;51.064;6.346;2023-11-19T13:52:34;26.10;;;4.20;;
5217;SDS011;26539;51.064;6.346;2023-11-19T13:54:59;21.30;;;4.50;;
5217;SDS011;26539;51.064;6.346;2023-11-19T13:57:25;19.03;;;3.87;;
5217;SDS011;26539;51.064;6.346;2023-11-19T13:59:51;16.50;;;3.67;;
5217;SDS011;26539;51.064;6.346;2023-11-19T14:02:16;24.80;;;4.70;;
5217;SDS011;26539;51.064;6.346;2023-11-19T14:04:42;14.13;;;3.50;;
5217;SDS011;26539;51.064;6.346;2023-11-19T14:07:07;12.57;;;2.90;;
5217;SDS011;26539;51.064;6.346;2023-11-19T14:09:33;18.43;;;4.00;;
5217;SDS011;26539;51.064;6.346;2023-11-19T14:11:58;13.03;;;2.90;;
5217;SDS011;26539;51.064;6.346;2023-11-19T14:14:24;16.60;;;4.87;;
5217;SDS011;26539;51.064;6.346;2023-11-19T14:16:49;14.03;;;3.40;;
5217;SDS011;26539;51.064;6.346;2023-11-19T14:19:15;11.37;;;3.37;;
5217;SDS011;26539;51.064;6.346;2023-11-19T14:21:41;12.73;;;3.30;;
5217;SDS011;26539;51.064;6.346;2023-11-19T14:24:06;14.77;;;3.80;;
5217;SDS011;26539;51.064;6.346;2023-11-19T14:26:32;14.67;;;4.13;;
5217;SDS011;26539;51.064;6.346;2023-11-19T14:28:57;14.23;;;3.90;;
5217;SDS011;26539;51.064;6.346;2023-11-19T14:31:23;14.83;;;3.53;;
5217;SDS011;26539;51.064;6.346;2023-11-19T14:33:52;12.83;;;3.13;;
5217;SDS011;26539;51.064;6.346;2023-11-19T14:36:18;12.27;;;3.77;;
5217;SDS011;26539;51.064;6.346;2023-11-19T14:38:44;15.30;;;3.37;;
5217;SDS011;26539;51.064;6.346;2023-11-19T14:41:09;21.70;;;4.27;;
5217;SDS011;26539;51.064;6.346;2023-11-19T14:43:35;14.37;;;3.30;;
5217;SDS011;26539;51.064;6.346;2023-11-19T14:46:00;14.63;;;3.87;;
5217;SDS011;26539;51.064;6.346;2023-11-19T14:48:28;20.20;;;4.63;;
5217;SDS011;26539;51.064;6.346;2023-11-19T14:50:53;17.73;;;3.60;;
5217;SDS011;26539;51.064;6.346;2023-11-19T14:53:19;10.27;;;3.37;;
5217;SDS011;26539;51.064;6.346;2023-11-19T14:55:45;16.27;;;4.30;;
5217;SDS011;26539;51.064;6.346;2023-11-19T14:58:10;18.40;;;5.17;;
5217;SDS011;26539;51.064;6.346;2023-11-19T15:00:35;22.07;;;4.40;;
5217;SDS011;26539;51.064;6.346;2023-11-19T15:03:01;21.50;;;4.03;;
5217;SDS011;26539;51.064;6.346;2023-11-19T15:05:26;14.73;;;3.40;;